Terminal Aerodrome Forecast
Issued by NWS

Home | Current Version | Previous Version | Text Only | Print | Product List | Glossary On
Versions: 1 2 3 4 5 6 7 8 9 10 11 12
000
FTUS44 KEPZ 181100
TAFLRU
TAF
KLRU 181120Z 1812/1912 13008KT P6SM BKN250
     FM181800 18012G20KT P6SM BKN250
     FM182100 22012G22KT P6SM BKN120 OVC200
     FM190200 VRB05KT P6SM VCTS SCT070CB BKN100 OVC200
      TEMPO 1903/1906 VRB27G40KT 6SM -TSRA BKN060CB OVC100
     FM190600 VRB05KT P6SM VCSH SCT060 BKN120=

USA.gov is the U.S. government's official web portal to all federal, state and local government web resources and services.